sensor_id;sensor_type;location;lat;lon;timestamp;temperature;humidity
19734;DHT22;10018;51.230;7.860;2023-10-09T00:00:14;13.00;99.90
19734;DHT22;10018;51.230;7.860;2023-10-09T00:03:01;13.10;99.90
19734;DHT22;10018;51.230;7.860;2023-10-09T00:05:29;13.10;99.90
19734;DHT22;10018;51.230;7.860;2023-10-09T00:08:10;13.20;99.90
19734;DHT22;10018;51.230;7.860;2023-10-09T00:10:36;13.20;99.90
19734;DHT22;10018;51.230;7.860;2023-10-09T00:13:13;13.20;99.90
19734;DHT22;10018;51.230;7.860;2023-10-09T00:15:39;13.20;99.90
19734;DHT22;10018;51.230;7.860;2023-10-09T00:18:06;13.20;99.90
19734;DHT22;10018;51.230;7.860;2023-10-09T00:20:40;13.20;99.90
19734;DHT22;10018;51.230;7.860;2023-10-09T00:23:10;13.30;99.90
19734;DHT22;10018;51.230;7.860;2023-10-09T00:25:49;13.20;99.90
19734;DHT22;10018;51.230;7.860;2023-10-09T00:28:34;13.20;99.90
19734;DHT22;10018;51.230;7.860;2023-10-09T00:31:00;13.20;99.90
19734;DHT22;10018;51.230;7.860;2023-10-09T00:33:32;13.10;99.90
19734;DHT22;10018;51.230;7.860;2023-10-09T00:36:03;13.10;99.90
19734;DHT22;10018;51.230;7.860;2023-10-09T00:38:36;13.20;99.90
19734;DHT22;10018;51.230;7.860;2023-10-09T00:41:05;13.10;99.90
19734;DHT22;10018;51.230;7.860;2023-10-09T00:43:34;13.20;99.90
19734;DHT22;10018;51.230;7.860;2023-10-09T00:46:05;13.20;99.90
19734;DHT22;10018;51.230;7.860;2023-10-09T00:48:47;13.30;99.90
19734;DHT22;10018;51.230;7.860;2023-10-09T00:51:16;13.30;99.90
19734;DHT22;10018;51.230;7.860;2023-10-09T00:53:46;13.30;99.90
19734;DHT22;10018;51.230;7.860;2023-10-09T00:56:20;13.30;99.90
19734;DHT22;10018;51.230;7.860;2023-10-09T00:58:53;13.40;99.90
19734;DHT22;10018;51.230;7.860;2023-10-09T01:01:27;13.30;99.90
19734;DHT22;10018;51.230;7.860;2023-10-09T01:04:04;13.30;99.90
19734;DHT22;10018;51.230;7.860;2023-10-09T01:06:38;13.30;99.90
19734;DHT22;10018;51.230;7.860;2023-10-09T01:09:13;13.30;99.90
19734;DHT22;10018;51.230;7.860;2023-10-09T01:11:40;13.30;99.90
19734;DHT22;10018;51.230;7.860;2023-10-09T01:14:32;13.30;99.90
19734;DHT22;10018;51.230;7.860;2023-10-09T01:17:06;13.30;99.90
19734;DHT22;10018;51.230;7.860;2023-10-09T01:19:36;13.30;99.90
19734;DHT22;10018;51.230;7.860;2023-10-09T01:22:02;13.30;99.90
19734;DHT22;10018;51.230;7.860;2023-10-09T01:24:38;13.30;99.90
19734;DHT22;10018;51.230;7.860;2023-10-09T01:27:05;13.30;99.90
19734;DHT22;10018;51.230;7.860;2023-10-09T01:29:36;13.40;99.90
19734;DHT22;10018;51.230;7.860;2023-10-09T01:32:04;13.30;99.90
19734;DHT22;10018;51.230;7.860;2023-10-09T01:34:31;13.30;99.90
19734;DHT22;10018;51.230;7.860;2023-10-09T01:37:17;13.30;99.90
19734;DHT22;10018;51.230;7.860;2023-10-09T01:39:52;13.40;99.90
19734;DHT22;10018;51.230;7.860;2023-10-09T01:42:21;13.30;99.90
19734;DHT22;10018;51.230;7.860;2023-10-09T01:44:55;13.30;99.90
19734;DHT22;10018;51.230;7.860;2023-10-09T01:47:34;13.30;99.90
19734;DHT22;10018;51.230;7.860;2023-10-09T01:50:04;13.20;99.90
19734;DHT22;10018;51.230;7.860;2023-10-09T01:52:32;13.10;99.90
19734;DHT22;10018;51.230;7.860;2023-10-09T01:55:01;13.10;99.90
19734;DHT22;10018;51.230;7.860;2023-10-09T01:57:39;13.10;99.90
19734;DHT22;10018;51.230;7.860;2023-10-09T02:00:05;13.10;99.90
19734;DHT22;10018;51.230;7.860;2023-10-09T02:02:32;13.00;99.90
19734;DHT22;10018;51.230;7.860;2023-10-09T02:05:04;13.10;99.90
19734;DHT22;10018;51.230;7.860;2023-10-09T02:07:50;13.10;99.90
19734;DHT22;10018;51.230;7.860;2023-10-09T02:10:23;13.10;99.90
19734;DHT22;10018;51.230;7.860;2023-10-09T02:12:59;13.10;99.90
19734;DHT22;10018;51.230;7.860;2023-10-09T02:15:33;13.20;99.90
19734;DHT22;10018;51.230;7.860;2023-10-09T02:18:18;13.20;99.90
19734;DHT22;10018;51.230;7.860;2023-10-09T02:20:48;13.10;99.90
19734;DHT22;10018;51.230;7.860;2023-10-09T02:23:26;13.20;99.90
19734;DHT22;10018;51.230;7.860;2023-10-09T02:26:04;13.10;99.90
19734;DHT22;10018;51.230;7.860;2023-10-09T02:28:35;13.20;99.90
19734;DHT22;10018;51.230;7.860;2023-10-09T02:31:10;13.20;99.90
19734;DHT22;10018;51.230;7.860;2023-10-09T02:33:39;13.20;99.90
19734;DHT22;10018;51.230;7.860;2023-10-09T02:36:08;13.10;99.90
19734;DHT22;10018;51.230;7.860;2023-10-09T02:38:34;13.10;99.90
19734;DHT22;10018;51.230;7.860;2023-10-09T02:41:06;13.10;99.90
19734;DHT22;10018;51.230;7.860;2023-10-09T02:43:46;13.20;99.90
19734;DHT22;10018;51.230;7.860;2023-10-09T02:46:15;13.10;99.90
19734;DHT22;10018;51.230;7.860;2023-10-09T02:48:48;13.10;99.90
19734;DHT22;10018;51.230;7.860;2023-10-09T02:51:21;13.10;99.90
19734;DHT22;10018;51.230;7.860;2023-10-09T02:53:54;13.10;99.90
19734;DHT22;10018;51.230;7.860;2023-10-09T02:56:21;13.10;99.90
19734;DHT22;10018;51.230;7.860;2023-10-09T02:58:53;13.10;99.90
19734;DHT22;10018;51.230;7.860;2023-10-09T03:01:22;13.20;99.90
19734;DHT22;10018;51.230;7.860;2023-10-09T03:03:47;13.20;99.90
19734;DHT22;10018;51.230;7.860;2023-10-09T03:06:16;13.20;99.90
19734;DHT22;10018;51.230;7.860;2023-10-09T03:08:50;13.20;99.90
19734;DHT22;10018;51.230;7.860;2023-10-09T03:11:16;13.20;99.90
19734;DHT22;10018;51.230;7.860;2023-10-09T03:13:47;13.20;99.90
19734;DHT22;10018;51.230;7.860;2023-10-09T03:16:18;13.20;99.90
19734;DHT22;10018;51.230;7.860;2023-10-09T03:18:51;13.20;99.90
19734;DHT22;10018;51.230;7.860;2023-10-09T03:21:17;13.20;99.90
19734;DHT22;10018;51.230;7.860;2023-10-09T03:23:48;13.20;99.90
19734;DHT22;10018;51.230;7.860;2023-10-09T03:26:18;13.20;99.90
19734;DHT22;10018;51.230;7.860;2023-10-09T03:28:48;13.10;99.90
19734;DHT22;10018;51.230;7.860;2023-10-09T03:31:13;13.20;99.90
19734;DHT22;10018;51.230;7.860;2023-10-09T03:33:40;13.20;99.90
19734;DHT22;10018;51.230;7.860;2023-10-09T03:36:07;13.10;99.90
19734;DHT22;10018;51.230;7.860;2023-10-09T03:38:38;13.10;99.90
19734;DHT22;10018;51.230;7.860;2023-10-09T03:41:07;13.10;99.90
19734;DHT22;10018;51.230;7.860;2023-10-09T03:43:36;13.20;99.90
19734;DHT22;10018;51.230;7.860;2023-10-09T03:46:08;13.10;99.90
19734;DHT22;10018;51.230;7.860;2023-10-09T03:48:49;13.10;99.90
19734;DHT22;10018;51.230;7.860;2023-10-09T03:51:17;13.10;99.90
19734;DHT22;10018;51.230;7.860;2023-10-09T03:53:52;13.10;99.90
19734;DHT22;10018;51.230;7.860;2023-10-09T03:56:20;13.10;99.90
19734;DHT22;10018;51.230;7.860;2023-10-09T03:58:50;13.10;99.90
19734;DHT22;10018;51.230;7.860;2023-10-09T04:01:20;13.20;99.90
19734;DHT22;10018;51.230;7.860;2023-10-09T04:03:56;13.10;99.90
19734;DHT22;10018;51.230;7.860;2023-10-09T04:06:28;13.10;99.90
19734;DHT22;10018;51.230;7.860;2023-10-09T04:09:01;13.10;99.90
19734;DHT22;10018;51.230;7.860;2023-10-09T04:11:51;13.10;99.90
19734;DHT22;10018;51.230;7.860;2023-10-09T04:14:43;13.20;99.90
19734;DHT22;10018;51.230;7.860;2023-10-09T04:17:14;13.10;99.90
19734;DHT22;10018;51.230;7.860;2023-10-09T04:19:58;13.10;99.90
19734;DHT22;10018;51.230;7.860;2023-10-09T04:22:45;13.20;99.90
19734;DHT22;10018;51.230;7.860;2023-10-09T04:25:20;13.10;99.90
19734;DHT22;10018;51.230;7.860;2023-10-09T04:27:59;13.20;99.90
19734;DHT22;10018;51.230;7.860;2023-10-09T04:30:41;13.20;99.90
19734;DHT22;10018;51.230;7.860;2023-10-09T04:33:13;13.10;99.90
19734;DHT22;10018;51.230;7.860;2023-10-09T04:36:07;13.10;99.90
19734;DHT22;10018;51.230;7.860;2023-10-09T04:38:54;13.10;99.90
19734;DHT22;10018;51.230;7.860;2023-10-09T04:41:32;13.10;99.90
19734;DHT22;10018;51.230;7.860;2023-10-09T04:44:07;13.10;99.90
19734;DHT22;10018;51.230;7.860;2023-10-09T04:46:49;13.00;99.90
19734;DHT22;10018;51.230;7.860;2023-10-09T04:49:34;13.10;99.90
19734;DHT22;10018;51.230;7.860;2023-10-09T04:52:18;13.00;99.90
19734;DHT22;10018;51.230;7.860;2023-10-09T04:54:50;13.00;99.90
19734;DHT22;10018;51.230;7.860;2023-10-09T04:57:53;13.00;99.90
19734;DHT22;10018;51.230;7.860;2023-10-09T05:00:33;13.00;99.90
19734;DHT22;10018;51.230;7.860;2023-10-09T05:03:03;13.00;99.90
19734;DHT22;10018;51.230;7.860;2023-10-09T05:05:52;13.00;99.90
19734;DHT22;10018;51.230;7.860;2023-10-09T05:08:25;13.00;99.90
19734;DHT22;10018;51.230;7.860;2023-10-09T05:11:04;13.00;99.90
19734;DHT22;10018;51.230;7.860;2023-10-09T05:13:30;13.00;99.90
19734;DHT22;10018;51.230;7.860;2023-10-09T05:18:31;12.90;99.90
19734;DHT22;10018;51.230;7.860;2023-10-09T05:21:03;13.00;99.90
19734;DHT22;10018;51.230;7.860;2023-10-09T05:23:38;12.90;99.90
19734;DHT22;10018;51.230;7.860;2023-10-09T05:26:14;13.00;99.90
19734;DHT22;10018;51.230;7.860;2023-10-09T05:29:06;12.90;99.90
19734;DHT22;10018;51.230;7.860;2023-10-09T05:31:51;13.00;99.90
19734;DHT22;10018;51.230;7.860;2023-10-09T05:34:31;13.00;99.90
19734;DHT22;10018;51.230;7.860;2023-10-09T05:37:02;13.00;99.90
19734;DHT22;10018;51.230;7.860;2023-10-09T05:39:44;13.00;99.90
19734;DHT22;10018;51.230;7.860;2023-10-09T05:42:24;13.00;99.90
19734;DHT22;10018;51.230;7.860;2023-10-09T05:44:54;13.00;99.90
19734;DHT22;10018;51.230;7.860;2023-10-09T05:47:38;13.00;99.90
19734;DHT22;10018;51.230;7.860;2023-10-09T05:50:21;13.00;99.90
19734;DHT22;10018;51.230;7.860;2023-10-09T05:52:47;12.90;99.90
19734;DHT22;10018;51.230;7.860;2023-10-09T05:55:23;13.00;99.90
19734;DHT22;10018;51.230;7.860;2023-10-09T05:58:23;12.90;99.90
19734;DHT22;10018;51.230;7.860;2023-10-09T06:01:07;12.90;99.90
19734;DHT22;10018;51.230;7.860;2023-10-09T06:03:52;12.90;99.90
19734;DHT22;10018;51.230;7.860;2023-10-09T06:06:21;12.90;99.90
19734;DHT22;10018;51.230;7.860;2023-10-09T06:09:03;12.90;99.90
19734;DHT22;10018;51.230;7.860;2023-10-09T06:11:55;12.90;99.90
19734;DHT22;10018;51.230;7.860;2023-10-09T06:14:40;13.00;99.90
19734;DHT22;10018;51.230;7.860;2023-10-09T06:17:06;13.00;99.90
19734;DHT22;10018;51.230;7.860;2023-10-09T06:19:50;13.00;99.90
19734;DHT22;10018;51.230;7.860;2023-10-09T06:22:24;13.00;99.90
19734;DHT22;10018;51.230;7.860;2023-10-09T06:25:01;13.00;99.90
19734;DHT22;10018;51.230;7.860;2023-10-09T06:27:34;13.00;99.90
19734;DHT22;10018;51.230;7.860;2023-10-09T06:30:00;13.00;99.90
19734;DHT22;10018;51.230;7.860;2023-10-09T06:32:44;13.00;99.90
19734;DHT22;10018;51.230;7.860;2023-10-09T06:35:28;13.10;99.90
19734;DHT22;10018;51.230;7.860;2023-10-09T06:37:58;13.10;99.90
19734;DHT22;10018;51.230;7.860;2023-10-09T06:40:36;13.10;99.90
19734;DHT22;10018;51.230;7.860;2023-10-09T06:43:03;13.10;99.90
19734;DHT22;10018;51.230;7.860;2023-10-09T06:45:57;13.10;99.90
19734;DHT22;10018;51.230;7.860;2023-10-09T06:48:41;13.20;99.90
19734;DHT22;10018;51.230;7.860;2023-10-09T06:51:16;13.20;99.90
19734;DHT22;10018;51.230;7.860;2023-10-09T06:54:01;13.20;99.90
19734;DHT22;10018;51.230;7.860;2023-10-09T06:56:35;13.20;99.90
19734;DHT22;10018;51.230;7.860;2023-10-09T06:59:05;13.20;99.90
19734;DHT22;10018;51.230;7.860;2023-10-09T07:01:51;13.30;99.90
19734;DHT22;10018;51.230;7.860;2023-10-09T07:04:36;13.30;99.90
19734;DHT22;10018;51.230;7.860;2023-10-09T07:07:02;13.30;99.90
19734;DHT22;10018;51.230;7.860;2023-10-09T07:09:33;13.40;99.90
19734;DHT22;10018;51.230;7.860;2023-10-09T07:12:08;13.40;99.90
19734;DHT22;10018;51.230;7.860;2023-10-09T07:14:51;13.50;99.90
19734;DHT22;10018;51.230;7.860;2023-10-09T07:17:17;13.50;99.90
19734;DHT22;10018;51.230;7.860;2023-10-09T07:19:52;13.50;99.90
19734;DHT22;10018;51.230;7.860;2023-10-09T07:22:24;13.60;99.90
19734;DHT22;10018;51.230;7.860;2023-10-09T07:24:55;13.60;99.90
19734;DHT22;10018;51.230;7.860;2023-10-09T07:27:22;13.60;99.90
19734;DHT22;10018;51.230;7.860;2023-10-09T07:30:08;13.70;99.90
19734;DHT22;10018;51.230;7.860;2023-10-09T07:33:04;13.70;99.90
19734;DHT22;10018;51.230;7.860;2023-10-09T07:35:44;13.80;99.90
19734;DHT22;10018;51.230;7.860;2023-10-09T07:38:15;13.80;99.90
19734;DHT22;10018;51.230;7.860;2023-10-09T07:40:45;13.80;99.90
19734;DHT22;10018;51.230;7.860;2023-10-09T07:43:32;13.90;99.90
19734;DHT22;10018;51.230;7.860;2023-10-09T07:46:07;14.00;99.90
19734;DHT22;10018;51.230;7.860;2023-10-09T07:49:08;14.10;99.90
19734;DHT22;10018;51.230;7.860;2023-10-09T07:51:36;14.20;99.90
19734;DHT22;10018;51.230;7.860;2023-10-09T07:54:02;14.20;99.90
19734;DHT22;10018;51.230;7.860;2023-10-09T07:56:34;14.30;99.90
19734;DHT22;10018;51.230;7.860;2023-10-09T07:59:19;14.30;99.90
19734;DHT22;10018;51.230;7.860;2023-10-09T08:01:46;14.40;99.90
19734;DHT22;10018;51.230;7.860;2023-10-09T08:04:26;14.40;99.90
19734;DHT22;10018;51.230;7.860;2023-10-09T08:07:11;14.50;99.90
19734;DHT22;10018;51.230;7.860;2023-10-09T08:10:07;14.60;99.90
19734;DHT22;10018;51.230;7.860;2023-10-09T08:12:39;14.70;99.90
19734;DHT22;10018;51.230;7.860;2023-10-09T08:15:24;14.80;99.90
19734;DHT22;10018;51.230;7.860;2023-10-09T08:18:12;14.90;99.90
19734;DHT22;10018;51.230;7.860;2023-10-09T08:20:53;15.00;99.90
19734;DHT22;10018;51.230;7.860;2023-10-09T08:23:22;15.10;99.90
19734;DHT22;10018;51.230;7.860;2023-10-09T08:26:03;15.10;99.90
19734;DHT22;10018;51.230;7.860;2023-10-09T08:28:42;15.20;99.90
19734;DHT22;10018;51.230;7.860;2023-10-09T08:31:12;15.10;99.90
19734;DHT22;10018;51.230;7.860;2023-10-09T08:33:45;15.20;99.90
19734;DHT22;10018;51.230;7.860;2023-10-09T08:36:22;15.20;99.90
19734;DHT22;10018;51.230;7.860;2023-10-09T08:38:48;15.10;99.90
19734;DHT22;10018;51.230;7.860;2023-10-09T08:41:14;15.30;99.90
19734;DHT22;10018;51.230;7.860;2023-10-09T08:43:52;15.30;99.90
19734;DHT22;10018;51.230;7.860;2023-10-09T08:46:23;15.30;99.90
19734;DHT22;10018;51.230;7.860;2023-10-09T08:48:53;15.40;99.90
19734;DHT22;10018;51.230;7.860;2023-10-09T08:51:19;15.40;99.90
19734;DHT22;10018;51.230;7.860;2023-10-09T08:53:46;15.50;99.90
19734;DHT22;10018;51.230;7.860;2023-10-09T08:56:21;15.60;99.90
19734;DHT22;10018;51.230;7.860;2023-10-09T08:58:49;15.60;99.90
19734;DHT22;10018;51.230;7.860;2023-10-09T09:01:18;15.70;99.90
19734;DHT22;10018;51.230;7.860;2023-10-09T09:03:48;15.80;99.90
19734;DHT22;10018;51.230;7.860;2023-10-09T09:06:20;15.90;99.90
19734;DHT22;10018;51.230;7.860;2023-10-09T09:08:46;16.00;99.90
19734;DHT22;10018;51.230;7.860;2023-10-09T09:11:16;16.10;99.90
19734;DHT22;10018;51.230;7.860;2023-10-09T09:14:03;16.10;99.90
19734;DHT22;10018;51.230;7.860;2023-10-09T09:16:34;16.20;99.90
19734;DHT22;10018;51.230;7.860;2023-10-09T09:19:06;16.30;99.90
19734;DHT22;10018;51.230;7.860;2023-10-09T09:21:52;16.40;99.90
19734;DHT22;10018;51.230;7.860;2023-10-09T09:24:21;16.40;99.90
19734;DHT22;10018;51.230;7.860;2023-10-09T09:26:48;16.40;99.90
19734;DHT22;10018;51.230;7.860;2023-10-09T09:29:37;16.40;99.90
19734;DHT22;10018;51.230;7.860;2023-10-09T09:32:11;16.40;99.90
19734;DHT22;10018;51.230;7.860;2023-10-09T09:34:50;16.50;99.90
19734;DHT22;10018;51.230;7.860;2023-10-09T09:37:24;16.50;99.90
19734;DHT22;10018;51.230;7.860;2023-10-09T09:40:16;16.60;99.90
19734;DHT22;10018;51.230;7.860;2023-10-09T09:43:07;16.70;99.90
19734;DHT22;10018;51.230;7.860;2023-10-09T09:45:47;16.70;99.90
19734;DHT22;10018;51.230;7.860;2023-10-09T09:48:15;16.80;99.90
19734;DHT22;10018;51.230;7.860;2023-10-09T09:50:42;16.90;99.90
19734;DHT22;10018;51.230;7.860;2023-10-09T09:53:13;17.00;99.90
19734;DHT22;10018;51.230;7.860;2023-10-09T09:55:51;17.30;99.90
19734;DHT22;10018;51.230;7.860;2023-10-09T09:58:24;17.40;99.90
19734;DHT22;10018;51.230;7.860;2023-10-09T10:01:03;17.50;99.90
19734;DHT22;10018;51.230;7.860;2023-10-09T10:03:47;17.80;99.90
19734;DHT22;10018;51.230;7.860;2023-10-09T10:06:18;17.90;99.90
19734;DHT22;10018;51.230;7.860;2023-10-09T10:08:44;18.10;99.90
19734;DHT22;10018;51.230;7.860;2023-10-09T10:11:44;18.30;99.90
19734;DHT22;10018;51.230;7.860;2023-10-09T10:14:13;18.60;99.90
19734;DHT22;10018;51.230;7.860;2023-10-09T10:17:01;18.80;99.90
19734;DHT22;10018;51.230;7.860;2023-10-09T10:22:47;19.10;99.90
19734;DHT22;10018;51.230;7.860;2023-10-09T10:25:34;19.10;99.90
19734;DHT22;10018;51.230;7.860;2023-10-09T10:28:22;19.20;99.90
19734;DHT22;10018;51.230;7.860;2023-10-09T10:30:55;19.40;99.90
19734;DHT22;10018;51.230;7.860;2023-10-09T10:33:21;19.40;99.90
19734;DHT22;10018;51.230;7.860;2023-10-09T10:35:48;19.50;99.90
19734;DHT22;10018;51.230;7.860;2023-10-09T10:41:15;19.70;99.90
19734;DHT22;10018;51.230;7.860;2023-10-09T10:43:42;19.80;99.90
19734;DHT22;10018;51.230;7.860;2023-10-09T10:46:18;20.00;99.90
19734;DHT22;10018;51.230;7.860;2023-10-09T10:48:59;20.10;99.90
19734;DHT22;10018;51.230;7.860;2023-10-09T10:51:35;20.10;99.90
19734;DHT22;10018;51.230;7.860;2023-10-09T10:54:04;20.00;99.90
19734;DHT22;10018;51.230;7.860;2023-10-09T10:56:56;20.10;99.90
19734;DHT22;10018;51.230;7.860;2023-10-09T10:59:46;20.10;99.90
19734;DHT22;10018;51.230;7.860;2023-10-09T11:02:11;20.20;99.90
19734;DHT22;10018;51.230;7.860;2023-10-09T11:04:37;20.10;99.90
19734;DHT22;10018;51.230;7.860;2023-10-09T11:07:10;20.20;99.90
19734;DHT22;10018;51.230;7.860;2023-10-09T11:09:47;20.00;99.90
19734;DHT22;10018;51.230;7.860;2023-10-09T11:15:14;19.80;99.90
19734;DHT22;10018;51.230;7.860;2023-10-09T11:18:04;19.80;99.90
19734;DHT22;10018;51.230;7.860;2023-10-09T11:20:57;19.90;99.90
19734;DHT22;10018;51.230;7.860;2023-10-09T11:23:29;19.90;99.90
19734;DHT22;10018;51.230;7.860;2023-10-09T11:26:03;19.90;99.90
19734;DHT22;10018;51.230;7.860;2023-10-09T11:29:13;19.90;99.90
19734;DHT22;10018;51.230;7.860;2023-10-09T11:32:02;19.90;99.90
19734;DHT22;10018;51.230;7.860;2023-10-09T11:34:31;19.90;99.90
19734;DHT22;10018;51.230;7.860;2023-10-09T11:37:15;19.90;99.90
19734;DHT22;10018;51.230;7.860;2023-10-09T11:39:41;20.10;99.90
19734;DHT22;10018;51.230;7.860;2023-10-09T11:42:20;20.10;99.90
19734;DHT22;10018;51.230;7.860;2023-10-09T11:45:24;20.10;99.90
19734;DHT22;10018;51.230;7.860;2023-10-09T11:47:54;20.10;99.90
19734;DHT22;10018;51.230;7.860;2023-10-09T11:50:43;20.10;99.90
19734;DHT22;10018;51.230;7.860;2023-10-09T11:53:10;20.20;99.90
19734;DHT22;10018;51.230;7.860;2023-10-09T11:55:59;20.20;99.90
19734;DHT22;10018;51.230;7.860;2023-10-09T11:58:25;20.20;99.90
19734;DHT22;10018;51.230;7.860;2023-10-09T12:00:54;20.20;99.90
19734;DHT22;10018;51.230;7.860;2023-10-09T12:03:29;20.30;99.90
19734;DHT22;10018;51.230;7.860;2023-10-09T12:06:06;20.30;99.90
19734;DHT22;10018;51.230;7.860;2023-10-09T12:08:40;20.30;99.90
19734;DHT22;10018;51.230;7.860;2023-10-09T12:11:06;20.40;99.90
19734;DHT22;10018;51.230;7.860;2023-10-09T12:13:38;20.40;99.90
19734;DHT22;10018;51.230;7.860;2023-10-09T12:16:04;20.40;99.90
19734;DHT22;10018;51.230;7.860;2023-10-09T12:18:38;20.40;99.90
19734;DHT22;10018;51.230;7.860;2023-10-09T12:21:05;20.40;99.90
19734;DHT22;10018;51.230;7.860;2023-10-09T12:23:32;20.40;99.90
19734;DHT22;10018;51.230;7.860;2023-10-09T12:26:05;20.50;99.90
19734;DHT22;10018;51.230;7.860;2023-10-09T12:28:42;20.60;99.90
19734;DHT22;10018;51.230;7.860;2023-10-09T12:31:12;20.50;99.90
19734;DHT22;10018;51.230;7.860;2023-10-09T12:33:40;20.60;99.90
19734;DHT22;10018;51.230;7.860;2023-10-09T12:36:06;20.50;99.90
19734;DHT22;10018;51.230;7.860;2023-10-09T12:38:34;20.60;99.90
19734;DHT22;10018;51.230;7.860;2023-10-09T12:41:06;20.60;99.90
19734;DHT22;10018;51.230;7.860;2023-10-09T12:44:04;20.60;99.90
19734;DHT22;10018;51.230;7.860;2023-10-09T12:46:30;20.60;99.90
19734;DHT22;10018;51.230;7.860;2023-10-09T12:49:02;20.60;99.90
19734;DHT22;10018;51.230;7.860;2023-10-09T12:51:28;20.60;99.90
19734;DHT22;10018;51.230;7.860;2023-10-09T12:53:56;20.60;99.90
19734;DHT22;10018;51.230;7.860;2023-10-09T12:56:28;20.60;99.90
19734;DHT22;10018;51.230;7.860;2023-10-09T12:59:03;20.60;99.90
19734;DHT22;10018;51.230;7.860;2023-10-09T13:01:30;20.60;99.90
19734;DHT22;10018;51.230;7.860;2023-10-09T13:04:13;20.60;99.90
19734;DHT22;10018;51.230;7.860;2023-10-09T13:06:42;20.50;99.90
19734;DHT22;10018;51.230;7.860;2023-10-09T13:09:15;20.50;99.90
19734;DHT22;10018;51.230;7.860;2023-10-09T13:11:44;20.50;99.90
19734;DHT22;10018;51.230;7.860;2023-10-09T13:14:13;20.40;99.90
19734;DHT22;10018;51.230;7.860;2023-10-09T13:16:51;20.40;99.90
19734;DHT22;10018;51.230;7.860;2023-10-09T13:19:17;20.40;99.90
19734;DHT22;10018;51.230;7.860;2023-10-09T13:21:43;20.30;99.90
19734;DHT22;10018;51.230;7.860;2023-10-09T13:24:09;20.30;99.90
19734;DHT22;10018;51.230;7.860;2023-10-09T13:26:39;20.40;99.90
19734;DHT22;10018;51.230;7.860;2023-10-09T13:29:07;20.40;99.90
19734;DHT22;10018;51.230;7.860;2023-10-09T13:31:35;20.40;99.90
19734;DHT22;10018;51.230;7.860;2023-10-09T13:34:06;20.30;99.90
19734;DHT22;10018;51.230;7.860;2023-10-09T13:36:35;20.40;99.90
19734;DHT22;10018;51.230;7.860;2023-10-09T13:39:04;20.50;99.90
19734;DHT22;10018;51.230;7.860;2023-10-09T13:41:59;20.50;99.90
19734;DHT22;10018;51.230;7.860;2023-10-09T13:44:30;20.50;99.90
19734;DHT22;10018;51.230;7.860;2023-10-09T13:47:01;20.50;99.90
19734;DHT22;10018;51.230;7.860;2023-10-09T13:49:29;20.50;99.90
19734;DHT22;10018;51.230;7.860;2023-10-09T13:51:56;20.40;99.90
19734;DHT22;10018;51.230;7.860;2023-10-09T13:54:22;20.50;99.90
19734;DHT22;10018;51.230;7.860;2023-10-09T13:57:05;20.60;99.90
19734;DHT22;10018;51.230;7.860;2023-10-09T13:59:31;20.80;99.90
19734;DHT22;10018;51.230;7.860;2023-10-09T14:01:57;21.10;99.90
19734;DHT22;10018;51.230;7.860;2023-10-09T14:04:25;21.60;99.90
19734;DHT22;10018;51.230;7.860;2023-10-09T14:06:51;22.30;99.90
19734;DHT22;10018;51.230;7.860;2023-10-09T14:09:26;22.60;99.90
19734;DHT22;10018;51.230;7.860;2023-10-09T14:11:58;22.90;99.90
19734;DHT22;10018;51.230;7.860;2023-10-09T14:14:36;23.50;99.90
19734;DHT22;10018;51.230;7.860;2023-10-09T14:17:22;23.10;99.90
19734;DHT22;10018;51.230;7.860;2023-10-09T14:19:55;23.00;99.90
19734;DHT22;10018;51.230;7.860;2023-10-09T14:22:24;22.80;99.90
19734;DHT22;10018;51.230;7.860;2023-10-09T14:24:50;22.30;99.90
19734;DHT22;10018;51.230;7.860;2023-10-09T14:27:23;21.90;99.90
19734;DHT22;10018;51.230;7.860;2023-10-09T14:29:53;21.60;99.90
19734;DHT22;10018;51.230;7.860;2023-10-09T14:32:22;21.30;99.90
19734;DHT22;10018;51.230;7.860;2023-10-09T14:34:56;21.10;99.90
19734;DHT22;10018;51.230;7.860;2023-10-09T14:37:39;21.00;99.90
19734;DHT22;10018;51.230;7.860;2023-10-09T14:40:06;21.00;99.90
19734;DHT22;10018;51.230;7.860;2023-10-09T14:42:41;21.10;99.90
19734;DHT22;10018;51.230;7.860;2023-10-09T14:45:13;21.10;99.90
19734;DHT22;10018;51.230;7.860;2023-10-09T14:47:42;21.40;99.90
19734;DHT22;10018;51.230;7.860;2023-10-09T14:50:08;21.50;99.90
19734;DHT22;10018;51.230;7.860;2023-10-09T14:52:34;21.30;99.90
19734;DHT22;10018;51.230;7.860;2023-10-09T14:55:04;21.10;99.90
19734;DHT22;10018;51.230;7.860;2023-10-09T14:57:31;20.90;99.90
19734;DHT22;10018;51.230;7.860;2023-10-09T15:00:00;20.70;99.90
19734;DHT22;10018;51.230;7.860;2023-10-09T15:02:26;20.40;99.90
19734;DHT22;10018;51.230;7.860;2023-10-09T15:04:52;20.20;99.90
19734;DHT22;10018;51.230;7.860;2023-10-09T15:07:18;20.00;99.90
19734;DHT22;10018;51.230;7.860;2023-10-09T15:09:44;20.00;99.90
19734;DHT22;10018;51.230;7.860;2023-10-09T15:12:10;19.90;99.90
19734;DHT22;10018;51.230;7.860;2023-10-09T15:14:36;19.90;99.90
19734;DHT22;10018;51.230;7.860;2023-10-09T15:17:02;19.80;99.90
19734;DHT22;10018;51.230;7.860;2023-10-09T15:19:29;19.70;99.90
19734;DHT22;10018;51.230;7.860;2023-10-09T15:21:58;19.70;99.90
19734;DHT22;10018;51.230;7.860;2023-10-09T15:24:25;19.70;99.90
19734;DHT22;10018;51.230;7.860;2023-10-09T15:26:53;19.60;99.90
19734;DHT22;10018;51.230;7.860;2023-10-09T15:29:19;19.60;99.90
19734;DHT22;10018;51.230;7.860;2023-10-09T15:31:51;19.60;99.90
19734;DHT22;10018;51.230;7.860;2023-10-09T15:34:16;19.60;99.90
19734;DHT22;10018;51.230;7.860;2023-10-09T15:36:44;19.60;99.90
19734;DHT22;10018;51.230;7.860;2023-10-09T15:39:15;19.50;99.90
19734;DHT22;10018;51.230;7.860;2023-10-09T15:41:45;19.40;99.90
19734;DHT22;10018;51.230;7.860;2023-10-09T15:44:14;19.30;99.90
19734;DHT22;10018;51.230;7.860;2023-10-09T15:46:40;19.30;99.90
19734;DHT22;10018;51.230;7.860;2023-10-09T15:49:05;19.30;99.90
19734;DHT22;10018;51.230;7.860;2023-10-09T15:51:34;19.30;99.90
19734;DHT22;10018;51.230;7.860;2023-10-09T15:54:00;19.20;99.90
19734;DHT22;10018;51.230;7.860;2023-10-09T15:56:26;19.10;99.90
19734;DHT22;10018;51.230;7.860;2023-10-09T15:58:52;19.10;99.90
19734;DHT22;10018;51.230;7.860;2023-10-09T16:01:19;19.00;99.90
19734;DHT22;10018;51.230;7.860;2023-10-09T16:03:46;19.00;99.90
19734;DHT22;10018;51.230;7.860;2023-10-09T16:06:16;19.00;99.90
19734;DHT22;10018;51.230;7.860;2023-10-09T16:08:45;19.00;99.90
19734;DHT22;10018;51.230;7.860;2023-10-09T16:11:15;18.90;99.90
19734;DHT22;10018;51.230;7.860;2023-10-09T16:13:41;18.90;99.90
19734;DHT22;10018;51.230;7.860;2023-10-09T16:16:07;18.80;99.90
19734;DHT22;10018;51.230;7.860;2023-10-09T16:18:35;18.80;99.90
19734;DHT22;10018;51.230;7.860;2023-10-09T16:21:03;18.80;99.90
19734;DHT22;10018;51.230;7.860;2023-10-09T16:23:33;18.70;99.90